sensor_id;sensor_type;location;lat;lon;timestamp;pressure;altitude;pressure_sealevel;temperature;humidity
76311;BME280;65120;59.304;18.294;2023-11-22T00:01:53;102841.09;;;-1.57;70.57
76311;BME280;65120;59.304;18.294;2023-11-22T00:04:20;102838.47;;;-1.59;70.55
76311;BME280;65120;59.304;18.294;2023-11-22T00:06:47;102827.22;;;-1.61;70.82
76311;BME280;65120;59.304;18.294;2023-11-22T00:09:14;102835.69;;;-1.62;70.93
76311;BME280;65120;59.304;18.294;2023-11-22T00:11:42;102837.25;;;-1.64;70.54
76311;BME280;65120;59.304;18.294;2023-11-22T00:14:09;102837.16;;;-1.65;70.61
76311;BME280;65120;59.304;18.294;2023-11-22T00:16:36;102835.31;;;-1.68;70.15
76311;BME280;65120;59.304;18.294;2023-11-22T00:19:05;102839.44;;;-1.70;70.88
76311;BME280;65120;59.304;18.294;2023-11-22T00:21:32;102834.13;;;-1.73;70.39
76311;BME280;65120;59.304;18.294;2023-11-22T00:23:59;102835.78;;;-1.73;70.66
76311;BME280;65120;59.304;18.294;2023-11-22T00:26:25;102832.25;;;-1.75;70.69
76311;BME280;65120;59.304;18.294;2023-11-22T00:28:54;102833.81;;;-1.77;70.33
76311;BME280;65120;59.304;18.294;2023-11-22T00:31:20;102831.94;;;-1.80;70.92
76311;BME280;65120;59.304;18.294;2023-11-22T00:33:47;102835.28;;;-1.81;70.68
76311;BME280;65120;59.304;18.294;2023-11-22T00:36:14;102823.16;;;-1.84;70.61
76311;BME280;65120;59.304;18.294;2023-11-22T00:38:42;102834.91;;;-1.87;70.91
76311;BME280;65120;59.304;18.294;2023-11-22T00:41:09;102837.34;;;-1.89;71.25
76311;BME280;65120;59.304;18.294;2023-11-22T00:43:36;102833.78;;;-1.91;71.10
76311;BME280;65120;59.304;18.294;2023-11-22T00:46:05;102837.06;;;-1.93;70.44
76311;BME280;65120;59.304;18.294;2023-11-22T00:48:32;102824.94;;;-1.96;70.68
76311;BME280;65120;59.304;18.294;2023-11-22T00:50:59;102832.50;;;-1.97;70.46
76311;BME280;65120;59.304;18.294;2023-11-22T00:53:27;102828.94;;;-1.99;70.63
76311;BME280;65120;59.304;18.294;2023-11-22T00:55:53;102830.44;;;-2.03;71.48
76311;BME280;65120;59.304;18.294;2023-11-22T00:58:21;102828.56;;;-2.06;70.80
76311;BME280;65120;59.304;18.294;2023-11-22T01:00:48;102821.66;;;-2.07;70.82
76311;BME280;65120;59.304;18.294;2023-11-22T01:03:16;102824.13;;;-2.08;71.53
76311;BME280;65120;59.304;18.294;2023-11-22T01:05:43;102818.13;;;-2.09;70.68
76311;BME280;65120;59.304;18.294;2023-11-22T01:08:12;102814.47;;;-2.12;71.08
76311;BME280;65120;59.304;18.294;2023-11-22T01:10:39;102814.06;;;-2.18;71.41
76311;BME280;65120;59.304;18.294;2023-11-22T01:13:06;102814.16;;;-2.17;71.49
76311;BME280;65120;59.304;18.294;2023-11-22T01:15:33;102805.59;;;-2.17;70.68
76311;BME280;65120;59.304;18.294;2023-11-22T01:18:00;102798.59;;;-2.20;71.07
76311;BME280;65120;59.304;18.294;2023-11-22T01:20:28;102795.06;;;-2.22;70.64
76311;BME280;65120;59.304;18.294;2023-11-22T01:22:55;102799.19;;;-2.24;71.41
76311;BME280;65120;59.304;18.294;2023-11-22T01:25:22;102801.56;;;-2.27;71.58
76311;BME280;65120;59.304;18.294;2023-11-22T01:27:49;102806.66;;;-2.27;70.81
76311;BME280;65120;59.304;18.294;2023-11-22T01:30:15;102800.56;;;-2.29;71.26
76311;BME280;65120;59.304;18.294;2023-11-22T01:32:43;102797.88;;;-2.31;71.08
76311;BME280;65120;59.304;18.294;2023-11-22T01:35:11;102797.78;;;-2.32;70.90
76311;BME280;65120;59.304;18.294;2023-11-22T01:37:39;102793.03;;;-2.39;71.29
76311;BME280;65120;59.304;18.294;2023-11-22T01:40:07;102806.03;;;-2.36;71.00
76311;BME280;65120;59.304;18.294;2023-11-22T01:42:35;102797.38;;;-2.38;71.63
76311;BME280;65120;59.304;18.294;2023-11-22T01:45:02;102795.59;;;-2.39;71.16
76311;BME280;65120;59.304;18.294;2023-11-22T01:47:30;102789.50;;;-2.41;71.52
76311;BME280;65120;59.304;18.294;2023-11-22T01:49:57;102784.28;;;-2.43;71.38
76311;BME280;65120;59.304;18.294;2023-11-22T01:52:24;102781.63;;;-2.44;71.04
76311;BME280;65120;59.304;18.294;2023-11-22T01:54:53;102790.97;;;-2.45;71.24
76311;BME280;65120;59.304;18.294;2023-11-22T01:57:20;102796.00;;;-2.46;71.66
76311;BME280;65120;59.304;18.294;2023-11-22T01:59:47;102796.78;;;-2.47;70.96
76311;BME280;65120;59.304;18.294;2023-11-22T02:02:14;102786.44;;;-2.49;71.46
76311;BME280;65120;59.304;18.294;2023-11-22T02:04:41;102787.22;;;-2.50;71.37
76311;BME280;65120;59.304;18.294;2023-11-22T02:07:09;102787.09;;;-2.52;71.19
76311;BME280;65120;59.304;18.294;2023-11-22T02:09:35;102790.56;;;-2.51;71.65
76311;BME280;65120;59.304;18.294;2023-11-22T02:12:04;102786.09;;;-2.54;71.42
76311;BME280;65120;59.304;18.294;2023-11-22T02:14:31;102785.22;;;-2.54;71.68
76311;BME280;65120;59.304;18.294;2023-11-22T02:16:58;102775.66;;;-2.57;71.56
76311;BME280;65120;59.304;18.294;2023-11-22T02:19:26;102772.16;;;-2.59;71.47
76311;BME280;65120;59.304;18.294;2023-11-22T02:21:52;102766.13;;;-2.59;71.58
76311;BME280;65120;59.304;18.294;2023-11-22T02:24:21;102760.91;;;-2.61;71.26
76311;BME280;65120;59.304;18.294;2023-11-22T02:26:48;102750.56;;;-2.62;71.54
76311;BME280;65120;59.304;18.294;2023-11-22T02:29:15;102756.34;;;-2.65;71.80
76311;BME280;65120;59.304;18.294;2023-11-22T02:31:42;102751.03;;;-2.68;71.68
76311;BME280;65120;59.304;18.294;2023-11-22T02:34:09;102751.03;;;-2.68;71.69
76311;BME280;65120;59.304;18.294;2023-11-22T02:36:36;102746.72;;;-2.69;71.74
76311;BME280;65120;59.304;18.294;2023-11-22T02:39:03;102743.16;;;-2.71;72.17
76311;BME280;65120;59.304;18.294;2023-11-22T02:41:33;102732.44;;;-2.79;71.31
76311;BME280;65120;59.304;18.294;2023-11-22T02:44:00;102742.06;;;-2.75;71.69
76311;BME280;65120;59.304;18.294;2023-11-22T02:46:27;102726.31;;;-2.81;71.25
76311;BME280;65120;59.304;18.294;2023-11-22T02:48:54;102734.19;;;-2.78;71.71
76311;BME280;65120;59.304;18.294;2023-11-22T02:51:21;102732.44;;;-2.79;71.59
76311;BME280;65120;59.304;18.294;2023-11-22T02:53:48;102722.09;;;-2.80;71.67
76311;BME280;65120;59.304;18.294;2023-11-22T02:56:16;102722.78;;;-2.83;71.92
76311;BME280;65120;59.304;18.294;2023-11-22T02:58:44;102727.00;;;-2.83;71.65
76311;BME280;65120;59.304;18.294;2023-11-22T03:01:12;102715.78;;;-2.85;71.50
76311;BME280;65120;59.304;18.294;2023-11-22T03:03:39;102704.66;;;-2.86;71.67
76311;BME280;65120;59.304;18.294;2023-11-22T03:06:06;102700.34;;;-2.87;71.98
76311;BME280;65120;59.304;18.294;2023-11-22T03:08:33;102701.09;;;-2.88;71.93
76311;BME280;65120;59.304;18.294;2023-11-22T03:11:00;102680.91;;;-2.97;71.80
76311;BME280;65120;59.304;18.294;2023-11-22T03:13:28;102686.44;;;-2.90;71.68
76311;BME280;65120;59.304;18.294;2023-11-22T03:15:56;102677.81;;;-2.92;71.72
76311;BME280;65120;59.304;18.294;2023-11-22T03:18:23;102675.59;;;-3.00;71.71
76311;BME280;65120;59.304;18.294;2023-11-22T03:20:50;102667.25;;;-2.97;71.95
76311;BME280;65120;59.304;18.294;2023-11-22T03:23:19;102669.72;;;-2.99;71.56
76311;BME280;65120;59.304;18.294;2023-11-22T03:25:47;102668.72;;;-3.01;72.04
76311;BME280;65120;59.304;18.294;2023-11-22T03:28:13;102682.28;;;-3.02;71.84
76311;BME280;65120;59.304;18.294;2023-11-22T03:30:40;102678.75;;;-3.04;71.75
76311;BME280;65120;59.304;18.294;2023-11-22T03:33:08;102671.84;;;-3.05;71.43
76311;BME280;65120;59.304;18.294;2023-11-22T03:35:36;102675.19;;;-3.06;71.94
76311;BME280;65120;59.304;18.294;2023-11-22T03:38:03;102680.31;;;-3.06;71.93
76311;BME280;65120;59.304;18.294;2023-11-22T03:40:29;102678.56;;;-3.07;71.76
76311;BME280;65120;59.304;18.294;2023-11-22T03:42:56;102671.56;;;-3.09;71.72
76311;BME280;65120;59.304;18.294;2023-11-22T03:45:23;102681.88;;;-3.08;71.74
76311;BME280;65120;59.304;18.294;2023-11-22T03:47:50;102681.00;;;-3.08;71.42
76311;BME280;65120;59.304;18.294;2023-11-22T03:50:18;102672.44;;;-3.09;71.60
76311;BME280;65120;59.304;18.294;2023-11-22T03:52:45;102676.66;;;-3.09;72.09
76311;BME280;65120;59.304;18.294;2023-11-22T03:55:12;102684.34;;;-3.09;71.73
76311;BME280;65120;59.304;18.294;2023-11-22T03:57:39;102675.78;;;-3.10;71.69
76311;BME280;65120;59.304;18.294;2023-11-22T04:00:07;102676.56;;;-3.11;72.21
76311;BME280;65120;59.304;18.294;2023-11-22T04:02:35;102677.34;;;-3.12;71.85
76311;BME280;65120;59.304;18.294;2023-11-22T04:05:01;102664.16;;;-3.18;72.01
76311;BME280;65120;59.304;18.294;2023-11-22T04:07:30;102672.22;;;-3.12;71.80
76311;BME280;65120;59.304;18.294;2023-11-22T04:09:57;102674.66;;;-3.13;71.96
76311;BME280;65120;59.304;18.294;2023-11-22T04:12:24;102683.03;;;-3.16;71.62
76311;BME280;65120;59.304;18.294;2023-11-22T04:14:51;102693.25;;;-3.16;72.09
76311;BME280;65120;59.304;18.294;2023-11-22T04:17:18;102694.03;;;-3.17;71.71
76311;BME280;65120;59.304;18.294;2023-11-22T04:19:45;102683.59;;;-3.20;71.95
76311;BME280;65120;59.304;18.294;2023-11-22T04:22:12;102691.28;;;-3.20;71.65
76311;BME280;65120;59.304;18.294;2023-11-22T04:24:40;102670.72;;;-3.22;71.61
76311;BME280;65120;59.304;18.294;2023-11-22T04:27:08;102673.19;;;-3.23;71.76
76311;BME280;65120;59.304;18.294;2023-11-22T04:29:35;102667.19;;;-3.24;72.03
76311;BME280;65120;59.304;18.294;2023-11-22T04:32:02;102660.28;;;-3.25;71.75
76311;BME280;65120;59.304;18.294;2023-11-22T04:34:29;102662.84;;;-3.25;72.16
76311;BME280;65120;59.304;18.294;2023-11-22T04:36:55;102655.06;;;-3.26;71.90
76311;BME280;65120;59.304;18.294;2023-11-22T04:39:23;102641.41;;;-3.27;72.09
76311;BME280;65120;59.304;18.294;2023-11-22T04:41:51;102632.09;;;-3.26;72.38
76311;BME280;65120;59.304;18.294;2023-11-22T04:44:18;102630.31;;;-3.27;71.83
76311;BME280;65120;59.304;18.294;2023-11-22T04:46:44;102624.97;;;-3.30;71.96
76311;BME280;65120;59.304;18.294;2023-11-22T04:49:11;102614.00;;;-3.29;72.29
76311;BME280;65120;59.304;18.294;2023-11-22T04:51:38;102607.09;;;-3.30;72.30
76311;BME280;65120;59.304;18.294;2023-11-22T04:54:05;102601.09;;;-3.31;71.99
76311;BME280;65120;59.304;18.294;2023-11-22T04:56:32;102602.69;;;-3.33;72.27
76311;BME280;65120;59.304;18.294;2023-11-22T04:59:01;102603.56;;;-3.32;72.00
76311;BME280;65120;59.304;18.294;2023-11-22T05:01:31;102590.66;;;-3.34;72.34
76311;BME280;65120;59.304;18.294;2023-11-22T05:03:58;102589.78;;;-3.34;71.85
76311;BME280;65120;59.304;18.294;2023-11-22T05:06:25;102582.91;;;-3.35;71.64
76311;BME280;65120;59.304;18.294;2023-11-22T05:08:52;102589.78;;;-3.34;72.22
76311;BME280;65120;59.304;18.294;2023-11-22T05:11:20;102588.13;;;-3.34;72.18
76311;BME280;65120;59.304;18.294;2023-11-22T05:13:47;102580.34;;;-3.35;72.13
76311;BME280;65120;59.304;18.294;2023-11-22T05:16:17;102582.91;;;-3.35;71.85
76311;BME280;65120;59.304;18.294;2023-11-22T05:18:43;102577.81;;;-3.35;71.95
76311;BME280;65120;59.304;18.294;2023-11-22T05:21:10;102565.03;;;-3.35;72.43
76311;BME280;65120;59.304;18.294;2023-11-22T05:23:37;102562.16;;;-3.40;72.08
76311;BME280;65120;59.304;18.294;2023-11-22T05:26:04;102555.56;;;-3.36;72.03
76311;BME280;65120;59.304;18.294;2023-11-22T05:28:31;102561.56;;;-3.36;72.24
76311;BME280;65120;59.304;18.294;2023-11-22T05:30:58;102567.59;;;-3.35;71.89
76311;BME280;65120;59.304;18.294;2023-11-22T05:33:27;102570.91;;;-3.36;72.10
76311;BME280;65120;59.304;18.294;2023-11-22T05:35:54;102559.91;;;-3.35;72.29
76311;BME280;65120;59.304;18.294;2023-11-22T05:38:20;102561.56;;;-3.36;72.10
76311;BME280;65120;59.304;18.294;2023-11-22T05:40:47;102562.47;;;-3.35;72.04
76311;BME280;65120;59.304;18.294;2023-11-22T05:43:14;102564.22;;;-3.34;72.24
76311;BME280;65120;59.304;18.294;2023-11-22T05:45:43;102566.00;;;-3.33;72.24
76311;BME280;65120;59.304;18.294;2023-11-22T05:48:15;102554.91;;;-3.34;71.83
76311;BME280;65120;59.304;18.294;2023-11-22T05:50:43;102554.91;;;-3.34;72.29
76311;BME280;65120;59.304;18.294;2023-11-22T05:53:11;102557.38;;;-3.35;72.46
76311;BME280;65120;59.304;18.294;2023-11-22T05:55:37;102560.81;;;-3.35;72.29
76311;BME280;65120;59.304;18.294;2023-11-22T05:58:04;102547.13;;;-3.35;72.32
76311;BME280;65120;59.304;18.294;2023-11-22T06:00:31;102543.78;;;-3.34;72.20
76311;BME280;65120;59.304;18.294;2023-11-22T06:02:58;102546.34;;;-3.34;72.32
76311;BME280;65120;59.304;18.294;2023-11-22T06:05:25;102548.09;;;-3.33;72.31
76311;BME280;65120;59.304;18.294;2023-11-22T06:07:53;102532.69;;;-3.35;72.19
76311;BME280;65120;59.304;18.294;2023-11-22T06:10:20;102530.22;;;-3.33;72.48
76311;BME280;65120;59.304;18.294;2023-11-22T06:12:48;102528.47;;;-3.34;72.20
76311;BME280;65120;59.304;18.294;2023-11-22T06:15:15;102535.31;;;-3.33;72.44
76311;BME280;65120;59.304;18.294;2023-11-22T06:17:42;102530.22;;;-3.33;72.49
76311;BME280;65120;59.304;18.294;2023-11-22T06:20:10;102527.59;;;-3.35;72.32
76311;BME280;65120;59.304;18.294;2023-11-22T06:22:37;102518.13;;;-3.36;72.10
76311;BME280;65120;59.304;18.294;2023-11-22T06:25:08;102516.47;;;-3.35;72.17
76311;BME280;65120;59.304;18.294;2023-11-22T06:27:36;102509.56;;;-3.36;72.39
76311;BME280;65120;59.304;18.294;2023-11-22T06:30:03;102493.38;;;-3.37;72.29
76311;BME280;65120;59.304;18.294;2023-11-22T06:32:31;102489.13;;;-3.36;72.09
76311;BME280;65120;59.304;18.294;2023-11-22T06:34:59;102475.97;;;-3.43;72.17
76311;BME280;65120;59.304;18.294;2023-11-22T06:37:26;102473.72;;;-3.38;71.99
76311;BME280;65120;59.304;18.294;2023-11-22T06:39:53;102461.72;;;-3.39;72.49
76311;BME280;65120;59.304;18.294;2023-11-22T06:42:21;102463.38;;;-3.40;71.98
76311;BME280;65120;59.304;18.294;2023-11-22T06:44:48;102463.38;;;-3.40;72.15
76311;BME280;65120;59.304;18.294;2023-11-22T06:47:15;102456.53;;;-3.41;71.83
76311;BME280;65120;59.304;18.294;2023-11-22T06:49:42;102448.75;;;-3.42;72.21
76311;BME280;65120;59.304;18.294;2023-11-22T06:52:09;102446.19;;;-3.42;72.21
76311;BME280;65120;59.304;18.294;2023-11-22T06:54:36;102446.19;;;-3.42;72.17
76311;BME280;65120;59.304;18.294;2023-11-22T06:57:03;102430.78;;;-3.44;72.04
76311;BME280;65120;59.304;18.294;2023-11-22T06:59:31;102440.00;;;-3.46;72.17
76311;BME280;65120;59.304;18.294;2023-11-22T07:01:58;102448.53;;;-3.45;72.42
76311;BME280;65120;59.304;18.294;2023-11-22T07:04:25;102432.34;;;-3.46;72.38
76311;BME280;65120;59.304;18.294;2023-11-22T07:06:53;102421.13;;;-3.48;72.30
76311;BME280;65120;59.304;18.294;2023-11-22T07:09:19;102417.81;;;-3.47;72.34
76311;BME280;65120;59.304;18.294;2023-11-22T07:11:46;102439.00;;;-3.48;72.13
76311;BME280;65120;59.304;18.294;2023-11-22T07:14:15;102439.00;;;-3.48;72.55
76311;BME280;65120;59.304;18.294;2023-11-22T07:16:43;102421.25;;;-3.46;72.43
76311;BME280;65120;59.304;18.294;2023-11-22T07:19:10;102416.13;;;-3.46;72.67
76311;BME280;65120;59.304;18.294;2023-11-22T07:21:38;102423.78;;;-3.46;72.67
76311;BME280;65120;59.304;18.294;2023-11-22T07:24:05;102428.22;;;-3.44;72.73
76311;BME280;65120;59.304;18.294;2023-11-22T07:26:34;102421.50;;;-3.42;72.69
76311;BME280;65120;59.304;18.294;2023-11-22T07:29:01;102421.63;;;-3.40;72.99
76311;BME280;65120;59.304;18.294;2023-11-22T07:31:28;102419.19;;;-3.38;72.96
76311;BME280;65120;59.304;18.294;2023-11-22T07:33:57;102418.28;;;-3.39;72.88
76311;BME280;65120;59.304;18.294;2023-11-22T07:36:24;102425.25;;;-3.36;72.96
76311;BME280;65120;59.304;18.294;2023-11-22T07:38:51;102424.50;;;-3.35;72.63
76311;BME280;65120;59.304;18.294;2023-11-22T07:41:19;102422.91;;;-3.33;73.24
76311;BME280;65120;59.304;18.294;2023-11-22T07:43:46;102416.22;;;-3.31;73.13
76311;BME280;65120;59.304;18.294;2023-11-22T07:46:13;102419.78;;;-3.29;73.04
76311;BME280;65120;59.304;18.294;2023-11-22T07:48:42;102411.31;;;-3.28;73.19
76311;BME280;65120;59.304;18.294;2023-11-22T07:51:13;102408.19;;;-3.24;73.25
76311;BME280;65120;59.304;18.294;2023-11-22T07:53:41;102403.94;;;-3.24;73.53
76311;BME280;65120;59.304;18.294;2023-11-22T07:56:09;102404.13;;;-3.21;73.29
76311;BME280;65120;59.304;18.294;2023-11-22T07:58:37;102397.53;;;-3.17;73.44
76311;BME280;65120;59.304;18.294;2023-11-22T08:01:04;102393.41;;;-3.15;73.53
76311;BME280;65120;59.304;18.294;2023-11-22T08:03:31;102382.50;;;-3.12;73.63
76311;BME280;65120;59.304;18.294;2023-11-22T08:06:00;102380.03;;;-3.11;73.60
76311;BME280;65120;59.304;18.294;2023-11-22T08:08:29;102372.66;;;-3.06;73.86
76311;BME280;65120;59.304;18.294;2023-11-22T08:10:56;102378.75;;;-3.04;73.82
76311;BME280;65120;59.304;18.294;2023-11-22T08:13:23;102367.94;;;-3.00;73.89
76311;BME280;65120;59.304;18.294;2023-11-22T08:15:50;102351.91;;;-2.98;73.93
76311;BME280;65120;59.304;18.294;2023-11-22T08:18:18;102356.41;;;-2.94;74.11
76311;BME280;65120;59.304;18.294;2023-11-22T08:20:45;102355.81;;;-2.89;74.24
76311;BME280;65120;59.304;18.294;2023-11-22T08:23:12;102343.22;;;-2.86;74.15
76311;BME280;65120;59.304;18.294;2023-11-22T08:25:41;102322.13;;;-2.82;74.04
76311;BME280;65120;59.304;18.294;2023-11-22T08:28:09;102319.75;;;-2.79;74.60
76311;BME280;65120;59.304;18.294;2023-11-22T08:30:35;102315.63;;;-2.77;74.69
76311;BME280;65120;59.304;18.294;2023-11-22T08:33:03;102305.75;;;-2.71;74.70
76311;BME280;65120;59.304;18.294;2023-11-22T08:35:29;102295.72;;;-2.68;74.36
76311;BME280;65120;59.304;18.294;2023-11-22T08:37:57;102287.44;;;-2.64;74.85
76311;BME280;65120;59.304;18.294;2023-11-22T08:40:24;102276.59;;;-2.60;74.37
76311;BME280;65120;59.304;18.294;2023-11-22T08:42:52;102273.34;;;-2.57;74.35
76311;BME280;65120;59.304;18.294;2023-11-22T08:45:19;102261.53;;;-2.55;75.11
76311;BME280;65120;59.304;18.294;2023-11-22T08:47:46;102243.88;;;-2.51;74.95
76311;BME280;65120;59.304;18.294;2023-11-22T08:50:15;102245.81;;;-2.46;74.97
76311;BME280;65120;59.304;18.294;2023-11-22T08:52:42;102231.53;;;-2.43;75.20
76311;BME280;65120;59.304;18.294;2023-11-22T08:55:11;102227.47;;;-2.39;75.14
76311;BME280;65120;59.304;18.294;2023-11-22T08:57:40;102223.41;;;-2.36;75.49
76311;BME280;65120;59.304;18.294;2023-11-22T09:00:08;102216.78;;;-2.32;75.04
76311;BME280;65120;59.304;18.294;2023-11-22T09:02:36;102201.59;;;-2.29;74.95
76311;BME280;65120;59.304;18.294;2023-11-22T09:05:05;102200.19;;;-2.24;74.88
76311;BME280;65120;59.304;18.294;2023-11-22T09:07:33;102194.44;;;-2.20;75.21
76311;BME280;65120;59.304;18.294;2023-11-22T09:10:01;102181.91;;;-2.15;75.55
76311;BME280;65120;59.304;18.294;2023-11-22T09:12:35;102178.72;;;-2.11;75.35
76311;BME280;65120;59.304;18.294;2023-11-22T09:15:06;102167.94;;;-2.06;75.43
76311;BME280;65120;59.304;18.294;2023-11-22T09:17:35;102156.19;;;-2.02;75.20
76311;BME280;65120;59.304;18.294;2023-11-22T09:20:02;102149.56;;;-1.98;76.20
76311;BME280;65120;59.304;18.294;2023-11-22T09:22:31;102146.34;;;-1.94;76.42
76311;BME280;65120;59.304;18.294;2023-11-22T09:24:59;102148.31;;;-1.90;76.50
76311;BME280;65120;59.304;18.294;2023-11-22T09:27:25;102136.53;;;-1.87;76.08
76311;BME280;65120;59.304;18.294;2023-11-22T09:29:52;102143.66;;;-1.81;76.15
76311;BME280;65120;59.304;18.294;2023-11-22T09:32:21;102130.22;;;-1.77;76.25
76311;BME280;65120;59.304;18.294;2023-11-22T09:34:49;102122.78;;;-1.72;76.09
76311;BME280;65120;59.304;18.294;2023-11-22T09:37:15;102120.47;;;-1.68;76.10
76311;BME280;65120;59.304;18.294;2023-11-22T09:39:42;102116.38;;;-1.64;76.37
76311;BME280;65120;59.304;18.294;2023-11-22T09:42:10;102113.16;;;-1.60;76.67
76311;BME280;65120;59.304;18.294;2023-11-22T09:44:38;102118.53;;;-1.55;76.17
76311;BME280;65120;59.304;18.294;2023-11-22T09:47:05;102107.63;;;-1.51;77.03
76311;BME280;65120;59.304;18.294;2023-11-22T09:49:34;102104.47;;;-1.47;76.44
76311;BME280;65120;59.304;18.294;2023-11-22T09:52:02;102087.63;;;-1.42;77.04
76311;BME280;65120;59.304;18.294;2023-11-22T09:54:30;102075.03;;;-1.38;77.04
76311;BME280;65120;59.304;18.294;2023-11-22T09:56:59;102070.06;;;-1.34;76.28
76311;BME280;65120;59.304;18.294;2023-11-22T09:59:29;102065.19;;;-1.30;76.34
76311;BME280;65120;59.304;18.294;2023-11-22T10:01:58;102053.38;;;-1.26;76.63
76311;BME280;65120;59.304;18.294;2023-11-22T10:04:26;102051.84;;;-1.23;76.60
76311;BME280;65120;59.304;18.294;2023-11-22T10:06:57;102032.41;;;-1.19;76.77
76311;BME280;65120;59.304;18.294;2023-11-22T10:09:25;102032.59;;;-1.15;77.05
76311;BME280;65120;59.304;18.294;2023-11-22T10:11:58;102029.41;;;-1.10;76.71
76311;BME280;65120;59.304;18.294;2023-11-22T10:14:25;102024.44;;;-1.07;76.39
76311;BME280;65120;59.304;18.294;2023-11-22T10:16:58;102009.25;;;-1.03;76.43
76311;BME280;65120;59.304;18.294;2023-11-22T10:19:26;101994.81;;;-1.01;76.53
76311;BME280;65120;59.304;18.294;2023-11-22T10:22:06;101989.91;;;-0.96;76.28
76311;BME280;65120;59.304;18.294;2023-11-22T10:24:33;101975.47;;;-0.94;76.39
76311;BME280;65120;59.304;18.294;2023-11-22T10:27:00;101973.94;;;-0.91;76.38
76311;BME280;65120;59.304;18.294;2023-11-22T10:29:27;101954.34;;;-0.88;76.03
76311;BME280;65120;59.304;18.294;2023-11-22T10:31:54;101943.44;;;-0.84;75.90
76311;BME280;65120;59.304;18.294;2023-11-22T10:34:23;101925.63;;;-0.81;76.13
76311;BME280;65120;59.304;18.294;2023-11-22T10:36:50;101921.50;;;-0.78;76.36
76311;BME280;65120;59.304;18.294;2023-11-22T10:39:22;101907.91;;;-0.77;76.17
76311;BME280;65120;59.304;18.294;2023-11-22T10:41:51;101894.38;;;-0.73;76.21
76311;BME280;65120;59.304;18.294;2023-11-22T10:44:20;101889.38;;;-0.70;75.64
76311;BME280;65120;59.304;18.294;2023-11-22T10:46:47;101875.00;;;-0.66;76.26
76311;BME280;65120;59.304;18.294;2023-11-22T10:49:16;101881.03;;;-0.65;76.00
76311;BME280;65120;59.304;18.294;2023-11-22T10:51:44;101881.97;;;-0.63;76.26
76311;BME280;65120;59.304;18.294;2023-11-22T10:54:16;101866.69;;;-0.60;76.49
76311;BME280;65120;59.304;18.294;2023-11-22T10:56:46;101861.66;;;-0.59;76.36
76311;BME280;65120;59.304;18.294;2023-11-22T10:59:19;101848.06;;;-0.56;76.26
76311;BME280;65120;59.304;18.294;2023-11-22T11:01:49;101843.00;;;-0.55;76.39
76311;BME280;65120;59.304;18.294;2023-11-22T11:04:24;101826.84;;;-0.52;76.03
76311;BME280;65120;59.304;18.294;2023-11-22T11:06:54;101816.72;;;-0.49;76.43
76311;BME280;65120;59.304;18.294;2023-11-22T11:09:22;101802.28;;;-0.47;75.80
76311;BME280;65120;59.304;18.294;2023-11-22T11:11:54;101788.69;;;-0.44;76.39
76311;BME280;65120;59.304;18.294;2023-11-22T11:14:22;101776.81;;;-0.42;76.02
76311;BME280;65120;59.304;18.294;2023-11-22T11:16:50;101755.50;;;-0.40;76.03
76311;BME280;65120;59.304;18.294;2023-11-22T11:19:20;101753.00;;;-0.38;76.37
76311;BME280;65120;59.304;18.294;2023-11-22T11:21:47;101742.00;;;-0.36;75.82
76311;BME280;65120;59.304;18.294;2023-11-22T11:24:14;101730.91;;;-0.35;76.30
76311;BME280;65120;59.304;18.294;2023-11-22T11:26:47;101728.47;;;-0.32;76.03
76311;BME280;65120;59.304;18.294;2023-11-22T11:29:30;101718.31;;;-0.29;75.87
76311;BME280;65120;59.304;18.294;2023-11-22T11:31:57;101704.69;;;-0.28;76.32
76311;BME280;65120;59.304;18.294;2023-11-22T11:34:24;101688.53;;;-0.25;76.60
76311;BME280;65120;59.304;18.294;2023-11-22T11:36:53;101690.34;;;-0.22;76.08
76311;BME280;65120;59.304;18.294;2023-11-22T11:39:25;101670.72;;;-0.20;76.08
76311;BME280;65120;59.304;18.294;2023-11-22T11:42:08;101654.56;;;-0.18;75.93
76311;BME280;65120;59.304;18.294;2023-11-22T11:44:36;101645.16;;;-0.17;76.04
76311;BME280;65120;59.304;18.294;2023-11-22T11:47:11;101641.03;;;-0.14;76.12
76311;BME280;65120;59.304;18.294;2023-11-22T11:49:38;101617.19;;;-0.11;76.05
76311;BME280;65120;59.304;18.294;2023-11-22T11:52:05;101614.72;;;-0.08;76.00
76311;BME280;65120;59.304;18.294;2023-11-22T11:54:33;101606.19;;;-0.07;75.98
76311;BME280;65120;59.304;18.294;2023-11-22T11:57:00;101579.75;;;-0.05;75.90
76311;BME280;65120;59.304;18.294;2023-11-22T11:59:27;101567.78;;;-0.04;76.54
76311;BME280;65120;59.304;18.294;2023-11-22T12:01:56;101564.44;;;-0.02;76.78
76311;BME280;65120;59.304;18.294;2023-11-22T12:04:24;101552.56;;;0.01;76.73
76311;BME280;65120;59.304;18.294;2023-11-22T12:06:51;101562.94;;;0.04;76.70
76311;BME280;65120;59.304;18.294;2023-11-22T12:09:22;101556.13;;;0.06;76.64
76311;BME280;65120;59.304;18.294;2023-11-22T12:11:51;101553.63;;;0.07;76.88
76311;BME280;65120;59.304;18.294;2023-11-22T12:14:18;101541.75;;;0.09;76.38
76311;BME280;65120;59.304;18.294;2023-11-22T12:16:45;101522.09;;;0.11;76.90
76311;BME280;65120;59.304;18.294;2023-11-22T12:19:22;101517.09;;;0.14;76.12
76311;BME280;65120;59.304;18.294;2023-11-22T12:21:50;101513.72;;;0.17;76.81
76311;BME280;65120;59.304;18.294;2023-11-22T12:24:17;101497.44;;;0.16;76.79
76311;BME280;65120;59.304;18.294;2023-11-22T12:26:45;101507.91;;;0.21;77.12
76311;BME280;65120;59.304;18.294;2023-11-22T12:29:14;101509.72;;;0.24;76.53
76311;BME280;65120;59.304;18.294;2023-11-22T12:31:45;101492.63;;;0.26;76.80
76311;BME280;65120;59.304;18.294;2023-11-22T12:34:13;101479.91;;;0.29;76.96
76311;BME280;65120;59.304;18.294;2023-11-22T12:36:42;101465.41;;;0.31;76.67
76311;BME280;65120;59.304;18.294;2023-11-22T12:39:09;101465.50;;;0.34;77.01
76311;BME280;65120;59.304;18.294;2023-11-22T12:41:42;101457.00;;;0.35;77.19
76311;BME280;65120;59.304;18.294;2023-11-22T12:44:10;101466.50;;;0.37;76.68